Time;durP1;ratioP1;P1;durP2;ratioP2;P2;SDS_P1;SDS_P2;PMS_P1;PMS_P2;Temp;Humidity;BMP_temperature;BMP_pressure;BME280_temperature;BME280_humidity;BME280_pressure;Samples;Min_cycle;Max_cycle;Signal;HPM_P1;HPM_P2
2021/07/19 00:02:15;;;;;;;12.05;7.90;;;;;;;;;;5071617;28;20140;-69
2021/07/19 00:04:43;;;;;;;14.73;8.40;;;;;;;;;;5071515;28;20052;-69
2021/07/19 00:07:10;;;;;;;12.32;8.20;;;;;;;;;;5071672;28;20056;-69
2021/07/19 00:09:37;;;;;;;12.48;8.57;;;;;;;;;;5071715;28;20051;-69
2021/07/19 00:12:06;;;;;;;12.48;7.88;;;;;;;;;;5071505;28;20056;-68
2021/07/19 00:14:33;;;;;;;11.93;8.30;;;;;;;;;;5070962;28;20079;-68
2021/07/19 00:17:01;;;;;;;14.30;8.32;;;;;;;;;;5070275;28;20053;-69
2021/07/19 00:19:27;;;;;;;14.18;9.55;;;;;;;;;;5071574;28;20055;-68
2021/07/19 00:21:54;;;;;;;12.98;8.38;;;;;;;;;;5073912;28;20044;-69
2021/07/19 00:24:20;;;;;;;11.82;8.23;;;;;;;;;;5074715;28;20143;-68
2021/07/19 00:26:46;;;;;;;12.30;9.25;;;;;;;;;;5074262;28;20059;-68
2021/07/19 00:29:13;;;;;;;13.82;9.20;;;;;;;;;;5074035;28;20061;-68
2021/07/19 00:31:40;;;;;;;17.30;10.27;;;;;;;;;;5072898;28;20037;-68
2021/07/19 00:34:08;;;;;;;14.20;8.80;;;;;;;;;;5073299;28;20052;-68
2021/07/19 00:36:34;;;;;;;14.35;9.13;;;;;;;;;;5073545;28;20056;-68
2021/07/19 00:39:01;;;;;;;16.00;9.45;;;;;;;;;;5073492;28;20405;-68
2021/07/19 00:41:28;;;;;;;15.35;8.93;;;;;;;;;;5073564;28;20048;-68
2021/07/19 00:43:54;;;;;;;14.27;9.27;;;;;;;;;;5073457;28;20044;-68
2021/07/19 00:46:20;;;;;;;14.45;9.80;;;;;;;;;;5073336;28;20059;-68
2021/07/19 00:48:48;;;;;;;12.27;9.05;;;;;;;;;;5073675;28;20052;-68
2021/07/19 00:51:15;;;;;;;15.85;9.88;;;;;;;;;;5072997;28;20067;-68
2021/07/19 00:53:42;;;;;;;16.35;8.98;;;;;;;;;;5073343;28;20057;-68
2021/07/19 00:56:10;;;;;;;14.57;9.10;;;;;;;;;;5073135;28;20052;-68
2021/07/19 00:58:38;;;;;;;15.05;8.95;;;;;;;;;;5073640;28;20106;-68
2021/07/19 01:01:06;;;;;;;17.42;9.85;;;;;;;;;;5072804;28;20055;-68
2021/07/19 01:03:33;;;;;;;16.67;9.32;;;;;;;;;;5073193;28;20052;-68
2021/07/19 01:06:01;;;;;;;15.18;9.52;;;;;;;;;;5072775;28;20392;-69
2021/07/19 01:08:29;;;;;;;15.02;9.30;;;;;;;;;;5073527;28;20048;-68
2021/07/19 01:10:56;;;;;;;13.48;8.88;;;;;;;;;;5073172;28;20140;-69
2021/07/19 01:13:22;;;;;;;14.18;8.70;;;;;;;;;;5072380;28;20048;-69
2021/07/19 01:15:49;;;;;;;12.57;8.68;;;;;;;;;;5073205;28;20051;-69
2021/07/19 01:18:15;;;;;;;14.65;9.45;;;;;;;;;;5073024;28;20052;-69
2021/07/19 01:21:12;;;;;;;15.20;9.70;;;;;;;;;;5072705;28;20603;-69
2021/07/19 01:24:08;;;;;;;14.25;9.45;;;;;;;;;;5055683;28;20051;-69
2021/07/19 01:26:58;;;;;;;17.38;10.45;;;;;;;;;;5071400;28;20090;-69
2021/07/19 01:29:27;;;;;;;15.75;10.13;;;;;;;;;;5039179;28;20055;-69
2021/07/19 01:31:53;;;;;;;15.45;9.85;;;;;;;;;;5070991;28;20485;-69
2021/07/19 01:34:22;;;;;;;14.15;9.27;;;;;;;;;;5073024;28;20055;-69
2021/07/19 01:36:51;;;;;;;14.15;9.50;;;;;;;;;;5073800;28;20063;-69
2021/07/19 01:39:18;;;;;;;13.63;9.77;;;;;;;;;;5072889;28;20134;-69
2021/07/19 01:41:45;;;;;;;14.77;8.95;;;;;;;;;;5071053;28;20044;-69
2021/07/19 01:44:11;;;;;;;13.75;9.85;;;;;;;;;;5071126;28;20060;-69
2021/07/19 01:46:40;;;;;;;13.93;8.75;;;;;;;;;;5072992;28;20126;-69
2021/07/19 01:49:07;;;;;;;14.75;9.30;;;;;;;;;;5073593;28;20055;-69
2021/07/19 01:51:33;;;;;;;13.95;9.32;;;;;;;;;;5073008;28;20052;-69
2021/07/19 01:54:01;;;;;;;18.60;9.77;;;;;;;;;;5073002;28;20048;-69
2021/07/19 01:56:28;;;;;;;16.15;9.52;;;;;;;;;;5072813;28;20089;-69
2021/07/19 01:58:56;;;;;;;13.57;8.73;;;;;;;;;;5072774;28;20048;-69
2021/07/19 02:01:23;;;;;;;15.60;9.27;;;;;;;;;;5072092;28;20052;-69
2021/07/19 02:03:51;;;;;;;13.35;8.45;;;;;;;;;;5073076;28;20045;-69
2021/07/19 02:06:18;;;;;;;13.07;9.25;;;;;;;;;;5072907;28;20052;-69
2021/07/19 02:08:47;;;;;;;12.77;8.55;;;;;;;;;;5072700;28;20515;-69
2021/07/19 02:11:15;;;;;;;13.68;8.15;;;;;;;;;;5071518;28;20060;-69
2021/07/19 02:13:44;;;;;;;17.08;9.02;;;;;;;;;;5072534;28;20055;-69
2021/07/19 02:16:11;;;;;;;18.52;9.65;;;;;;;;;;5073009;28;20504;-69
2021/07/19 02:18:39;;;;;;;14.40;9.98;;;;;;;;;;5072717;28;20485;-69
2021/07/19 02:21:07;;;;;;;13.77;9.10;;;;;;;;;;5071649;28;20122;-69
2021/07/19 02:23:34;;;;;;;15.77;9.27;;;;;;;;;;5062162;28;20105;-69
2021/07/19 02:26:03;;;;;;;14.65;9.20;;;;;;;;;;5072869;28;20366;-69
2021/07/19 02:28:30;;;;;;;16.02;8.75;;;;;;;;;;5055198;28;20053;-69
2021/07/19 02:30:57;;;;;;;13.40;9.23;;;;;;;;;;5065480;28;20048;-69
2021/07/19 02:33:23;;;;;;;15.23;8.85;;;;;;;;;;5072739;28;20703;-69
2021/07/19 02:35:51;;;;;;;13.10;8.90;;;;;;;;;;5072548;28;20481;-69
2021/07/19 02:38:19;;;;;;;14.45;9.85;;;;;;;;;;5072245;28;20052;-69
2021/07/19 02:40:46;;;;;;;15.07;9.43;;;;;;;;;;5071631;28;20044;-69
2021/07/19 02:43:14;;;;;;;20.42;9.77;;;;;;;;;;5071755;28;20098;-69
2021/07/19 02:45:42;;;;;;;14.25;10.30;;;;;;;;;;5063183;28;20056;-69
2021/07/19 02:48:12;;;;;;;14.40;9.25;;;;;;;;;;5054790;28;20052;-69
2021/07/19 02:50:39;;;;;;;14.02;8.70;;;;;;;;;;5065659;28;20458;-69
2021/07/19 02:53:09;;;;;;;12.63;8.50;;;;;;;;;;5072588;28;20064;-69
2021/07/19 02:55:38;;;;;;;15.02;9.57;;;;;;;;;;5072353;28;20405;-69
2021/07/19 02:58:06;;;;;;;12.98;9.35;;;;;;;;;;5072610;28;20055;-69
2021/07/19 03:00:33;;;;;;;14.40;9.25;;;;;;;;;;5072075;28;20063;-69
2021/07/19 03:03:02;;;;;;;15.93;8.88;;;;;;;;;;5072116;28;20048;-69
2021/07/19 03:05:31;;;;;;;14.23;9.57;;;;;;;;;;5072483;28;20063;-69
2021/07/19 03:08:00;;;;;;;14.55;9.38;;;;;;;;;;5072389;28;20481;-69
2021/07/19 03:10:28;;;;;;;11.90;8.63;;;;;;;;;;5072522;28;20049;-69
2021/07/19 03:12:59;;;;;;;15.10;9.07;;;;;;;;;;5071866;28;20052;-69
2021/07/19 03:15:27;;;;;;;16.30;9.38;;;;;;;;;;5071802;28;20054;-69
2021/07/19 03:17:54;;;;;;;18.05;9.70;;;;;;;;;;5072279;28;20056;-69
2021/07/19 03:20:20;;;;;;;13.43;8.73;;;;;;;;;;5072208;28;20466;-69
2021/07/19 03:22:48;;;;;;;15.45;10.40;;;;;;;;;;5071907;28;20052;-69
2021/07/19 03:25:16;;;;;;;14.35;9.27;;;;;;;;;;5072232;28;20059;-69
2021/07/19 03:27:43;;;;;;;15.52;10.05;;;;;;;;;;5072188;28;20516;-69
2021/07/19 03:30:13;;;;;;;13.40;8.75;;;;;;;;;;5072145;28;20075;-69
2021/07/19 03:32:40;;;;;;;15.60;9.68;;;;;;;;;;5072435;28;20067;-69
2021/07/19 03:35:08;;;;;;;17.23;9.85;;;;;;;;;;5072325;28;20049;-69
2021/07/19 03:37:34;;;;;;;14.23;9.02;;;;;;;;;;5072166;28;20052;-69
2021/07/19 03:40:01;;;;;;;12.85;8.88;;;;;;;;;;5072030;28;20064;-70
2021/07/19 03:42:28;;;;;;;13.30;9.13;;;;;;;;;;5070635;28;20058;-69
2021/07/19 03:44:55;;;;;;;14.52;9.70;;;;;;;;;;5071038;28;20048;-69
2021/07/19 03:47:23;;;;;;;13.95;8.77;;;;;;;;;;5071372;28;20052;-69
2021/07/19 03:49:49;;;;;;;13.93;9.50;;;;;;;;;;5071341;28;20044;-69
2021/07/19 03:52:16;;;;;;;14.18;9.40;;;;;;;;;;5072341;28;20044;-69
2021/07/19 03:54:43;;;;;;;15.23;8.77;;;;;;;;;;5075734;28;20385;-69
2021/07/19 03:57:10;;;;;;;14.13;9.65;;;;;;;;;;5075049;28;20051;-69
2021/07/19 03:59:38;;;;;;;13.70;8.57;;;;;;;;;;5075425;28;20040;-69
2021/07/19 04:02:10;;;;;;;14.93;9.55;;;;;;;;;;5075327;28;20048;-69
2021/07/19 04:04:41;;;;;;;16.17;9.60;;;;;;;;;;5076511;28;20044;-69
2021/07/19 04:07:08;;;;;;;14.88;9.40;;;;;;;;;;5076197;28;20424;-69
2021/07/19 04:09:38;;;;;;;15.40;9.20;;;;;;;;;;5076049;28;20508;-69
2021/07/19 04:12:06;;;;;;;13.30;9.88;;;;;;;;;;5072045;28;20041;-69
2021/07/19 04:14:32;;;;;;;15.65;9.88;;;;;;;;;;5065786;28;20528;-69
2021/07/19 04:16:59;;;;;;;14.52;9.45;;;;;;;;;;5056318;28;20401;-69
2021/07/19 04:19:26;;;;;;;16.17;11.20;;;;;;;;;;5056380;28;20151;-69
2021/07/19 04:21:54;;;;;;;15.52;9.85;;;;;;;;;;5068468;28;20050;-69
2021/07/19 04:24:20;;;;;;;15.73;10.68;;;;;;;;;;5075925;28;20044;-69
2021/07/19 04:26:47;;;;;;;14.40;9.68;;;;;;;;;;5074168;28;20551;-70
2021/07/19 04:29:13;;;;;;;15.68;9.45;;;;;;;;;;5074902;28;20052;-69
2021/07/19 04:31:40;;;;;;;14.30;9.45;;;;;;;;;;5075373;28;20041;-69
2021/07/19 04:34:07;;;;;;;13.70;9.88;;;;;;;;;;5075422;28;20048;-70
2021/07/19 04:36:33;;;;;;;14.60;8.73;;;;;;;;;;5075091;28;20078;-70
2021/07/19 04:39:02;;;;;;;14.15;9.50;;;;;;;;;;5075473;28;20401;-69
2021/07/19 04:41:29;;;;;;;15.32;9.20;;;;;;;;;;5074745;28;20050;-69
2021/07/19 04:43:56;;;;;;;17.35;10.88;;;;;;;;;;5075285;28;20048;-69
2021/07/19 04:46:22;;;;;;;15.25;9.82;;;;;;;;;;5075163;28;20056;-69
2021/07/19 04:48:49;;;;;;;16.92;10.20;;;;;;;;;;5075148;28;20052;-69
2021/07/19 04:51:15;;;;;;;14.38;10.00;;;;;;;;;;5075121;28;20056;-69
2021/07/19 04:53:43;;;;;;;14.13;10.07;;;;;;;;;;5074889;28;20045;-69
2021/07/19 04:56:11;;;;;;;13.70;9.40;;;;;;;;;;5074520;28;20652;-69
2021/07/19 04:58:38;;;;;;;22.15;10.13;;;;;;;;;;5074864;28;20062;-69
2021/07/19 05:01:06;;;;;;;15.95;9.07;;;;;;;;;;5074618;28;20045;-69
2021/07/19 05:03:36;;;;;;;13.88;8.85;;;;;;;;;;5073978;28;20053;-69
2021/07/19 05:06:03;;;;;;;15.30;10.02;;;;;;;;;;5074419;28;20048;-69
2021/07/19 05:08:30;;;;;;;14.95;9.80;;;;;;;;;;5074027;28;20045;-69
2021/07/19 05:10:57;;;;;;;15.15;9.40;;;;;;;;;;5073829;28;20048;-70
2021/07/19 05:13:27;;;;;;;14.93;9.02;;;;;;;;;;5074009;28;20049;-70
2021/07/19 05:15:53;;;;;;;16.52;9.73;;;;;;;;;;5074036;28;20139;-70
2021/07/19 05:18:20;;;;;;;15.65;10.77;;;;;;;;;;5071037;28;20055;-70
2021/07/19 05:20:47;;;;;;;16.65;10.55;;;;;;;;;;5056691;28;20049;-70
2021/07/19 05:23:14;;;;;;;17.77;10.93;;;;;;;;;;5073487;28;20045;-70
2021/07/19 05:25:40;;;;;;;17.05;10.38;;;;;;;;;;5073271;28;20377;-70
2021/07/19 05:28:09;;;;;;;14.23;9.80;;;;;;;;;;5073424;28;20474;-70
2021/07/19 05:30:39;;;;;;;16.80;9.82;;;;;;;;;;5073383;28;20067;-70
2021/07/19 05:33:06;;;;;;;14.55;9.55;;;;;;;;;;5073533;28;20048;-70
2021/07/19 05:35:32;;;;;;;15.82;9.88;;;;;;;;;;5073668;28;20481;-70
2021/07/19 05:37:59;;;;;;;18.23;11.82;;;;;;;;;;5073343;28;20044;-70
2021/07/19 05:40:25;;;;;;;16.63;10.73;;;;;;;;;;5073691;28;20057;-70
2021/07/19 05:42:52;;;;;;;15.18;10.27;;;;;;;;;;5073252;28;20063;-70
2021/07/19 05:45:18;;;;;;;19.75;12.13;;;;;;;;;;5073108;28;20044;-70
2021/07/19 05:47:46;;;;;;;19.08;11.63;;;;;;;;;;5073258;28;20056;-70
2021/07/19 05:50:13;;;;;;;17.38;10.50;;;;;;;;;;5073431;28;20060;-70
2021/07/19 05:52:40;;;;;;;15.95;10.07;;;;;;;;;;5073021;28;20078;-70
2021/07/19 05:55:07;;;;;;;19.10;11.13;;;;;;;;;;5073432;28;20075;-70
2021/07/19 05:57:34;;;;;;;14.45;10.07;;;;;;;;;;5073048;28;20048;-70
2021/07/19 06:00:01;;;;;;;17.20;11.15;;;;;;;;;;5073232;28;20462;-70
2021/07/19 06:02:29;;;;;;;17.02;11.38;;;;;;;;;;5072737;28;20048;-69
2021/07/19 06:04:57;;;;;;;15.35;10.48;;;;;;;;;;5072721;28;20053;-70
2021/07/19 06:07:23;;;;;;;16.45;10.77;;;;;;;;;;5072958;28;20048;-70
2021/07/19 06:09:50;;;;;;;15.10;9.82;;;;;;;;;;5073023;28;20052;-70
2021/07/19 06:12:16;;;;;;;17.75;11.25;;;;;;;;;;5072425;28;20044;-70
2021/07/19 06:14:43;;;;;;;16.15;10.63;;;;;;;;;;5072959;28;20055;-70
2021/07/19 06:17:12;;;;;;;15.77;10.43;;;;;;;;;;5072524;28;20075;-69
2021/07/19 06:19:39;;;;;;;14.63;9.88;;;;;;;;;;5072473;28;20045;-70
2021/07/19 06:22:08;;;;;;;16.63;10.68;;;;;;;;;;5072338;28;20477;-70
2021/07/19 06:24:34;;;;;;;15.55;10.88;;;;;;;;;;5072572;28;20050;-70
2021/07/19 06:27:00;;;;;;;18.35;10.27;;;;;;;;;;5072212;28;20053;-70
2021/07/19 06:29:27;;;;;;;20.70;10.88;;;;;;;;;;5072351;28;20053;-70
2021/07/19 06:31:53;;;;;;;15.13;10.25;;;;;;;;;;5070364;28;20048;-70
2021/07/19 06:34:20;;;;;;;15.93;10.25;;;;;;;;;;5072369;28;20048;-70
2021/07/19 06:36:46;;;;;;;18.35;10.10;;;;;;;;;;5072116;28;20060;-69
2021/07/19 06:39:14;;;;;;;14.30;9.35;;;;;;;;;;5072231;28;20401;-69
2021/07/19 06:41:40;;;;;;;18.45;10.30;;;;;;;;;;5072014;28;20048;-71
2021/07/19 06:44:07;;;;;;;13.32;9.55;;;;;;;;;;5072689;28;20052;-70
2021/07/19 06:46:34;;;;;;;18.05;10.05;;;;;;;;;;5072189;28;20052;-69
2021/07/19 06:49:00;;;;;;;21.02;10.88;;;;;;;;;;5071783;28;20048;-69
2021/07/19 06:51:27;;;;;;;16.98;9.07;;;;;;;;;;5071210;28;20660;-69
2021/07/19 06:53:53;;;;;;;14.55;9.00;;;;;;;;;;5071963;28;20060;-69
2021/07/19 06:56:21;;;;;;;25.83;9.43;;;;;;;;;;5071829;28;20049;-69
2021/07/19 06:58:48;;;;;;;24.58;9.35;;;;;;;;;;5071712;28;20052;-69
2021/07/19 07:01:15;;;;;;;12.77;8.45;;;;;;;;;;5071603;28;20048;-69
2021/07/19 07:03:41;;;;;;;13.40;8.80;;;;;;;;;;5071669;28;20052;-70
2021/07/19 07:06:08;;;;;;;13.25;8.75;;;;;;;;;;5071665;28;20055;-71
2021/07/19 07:08:35;;;;;;;12.35;8.65;;;;;;;;;;5071562;28;20511;-70
2021/07/19 07:11:01;;;;;;;12.20;7.82;;;;;;;;;;5071502;28;20641;-70
2021/07/19 07:13:29;;;;;;;14.27;8.50;;;;;;;;;;5070810;28;20457;-69
2021/07/19 07:15:55;;;;;;;14.48;8.18;;;;;;;;;;5071463;28;20485;-69
2021/07/19 07:18:22;;;;;;;11.20;7.65;;;;;;;;;;5071815;28;20048;-69
2021/07/19 07:20:48;;;;;;;10.68;7.95;;;;;;;;;;5071504;28;20044;-69
2021/07/19 07:23:15;;;;;;;13.48;8.77;;;;;;;;;;5071667;28;20048;-69
2021/07/19 07:25:41;;;;;;;10.35;7.30;;;;;;;;;;5071449;28;20048;-69
2021/07/19 07:28:07;;;;;;;11.35;7.70;;;;;;;;;;5071481;28;20060;-69
2021/07/19 07:30:35;;;;;;;11.13;6.93;;;;;;;;;;5071120;28;20388;-69
2021/07/19 07:33:03;;;;;;;10.07;6.68;;;;;;;;;;5071702;28;20045;-69
2021/07/19 07:35:30;;;;;;;10.98;5.80;;;;;;;;;;5071317;28;20045;-69
2021/07/19 07:37:56;;;;;;;8.65;6.88;;;;;;;;;;5054555;28;20052;-69
2021/07/19 07:40:22;;;;;;;9.85;5.50;;;;;;;;;;5062566;28;20055;-69
2021/07/19 07:42:49;;;;;;;10.35;6.18;;;;;;;;;;5071368;28;20045;-70
2021/07/19 07:45:15;;;;;;;9.25;6.47;;;;;;;;;;5071228;28;20053;-70
2021/07/19 07:47:44;;;;;;;8.63;5.55;;;;;;;;;;5071176;28;20060;-70
2021/07/19 07:50:11;;;;;;;7.45;5.60;;;;;;;;;;5071666;28;20102;-70
2021/07/19 07:52:39;;;;;;;8.10;5.63;;;;;;;;;;5071105;28;20052;-70
2021/07/19 07:55:06;;;;;;;8.80;6.15;;;;;;;;;;5071222;28;20044;-70
2021/07/19 07:57:33;;;;;;;11.77;6.18;;;;;;;;;;5071362;28;20048;-70
2021/07/19 08:00:00;;;;;;;10.80;5.80;;;;;;;;;;5071527;28;20052;-70
2021/07/19 08:02:26;;;;;;;7.32;5.50;;;;;;;;;;5070976;28;20416;-70
2021/07/19 08:04:54;;;;;;;7.55;5.82;;;;;;;;;;5071243;28;20520;-70
2021/07/19 08:07:20;;;;;;;7.57;5.50;;;;;;;;;;5071452;28;20052;-70
2021/07/19 08:09:47;;;;;;;7.88;5.60;;;;;;;;;;5071146;28;20087;-70
2021/07/19 08:12:13;;;;;;;8.30;5.75;;;;;;;;;;5070974;28;20044;-70
2021/07/19 08:14:40;;;;;;;8.13;5.78;;;;;;;;;;5071313;28;20074;-70
2021/07/19 08:17:06;;;;;;;10.98;5.57;;;;;;;;;;5071093;28;20061;-70
2021/07/19 08:19:33;;;;;;;6.97;4.68;;;;;;;;;;5070913;28;20492;-70
2021/07/19 08:22:01;;;;;;;6.75;4.60;;;;;;;;;;5070720;28;20451;-70
2021/07/19 08:24:28;;;;;;;6.82;5.05;;;;;;;;;;5071089;28;20052;-70
2021/07/19 08:26:55;;;;;;;8.43;4.53;;;;;;;;;;5070992;28;20057;-70
2021/07/19 08:29:21;;;;;;;8.07;4.90;;;;;;;;;;5071370;28;20102;-70
2021/07/19 08:31:47;;;;;;;7.43;4.55;;;;;;;;;;5070607;28;20048;-69
2021/07/19 08:34:14;;;;;;;6.38;4.32;;;;;;;;;;5070923;28;20052;-70
2021/07/19 08:36:40;;;;;;;6.35;4.53;;;;;;;;;;5070379;28;20056;-69
2021/07/19 08:39:08;;;;;;;7.85;4.13;;;;;;;;;;5070971;28;20386;-69
2021/07/19 08:41:36;;;;;;;6.95;3.40;;;;;;;;;;5073589;28;20040;-70
2021/07/19 08:44:05;;;;;;;6.43;4.13;;;;;;;;;;5073960;28;20044;-70
2021/07/19 08:46:32;;;;;;;5.65;4.00;;;;;;;;;;5073982;28;20041;-70
2021/07/19 08:48:58;;;;;;;6.22;3.63;;;;;;;;;;5074229;28;20059;-70
2021/07/19 08:51:25;;;;;;;5.50;3.90;;;;;;;;;;5074178;28;20049;-70
2021/07/19 08:53:52;;;;;;;5.60;4.15;;;;;;;;;;5074151;28;20048;-70
2021/07/19 08:56:20;;;;;;;4.95;3.80;;;;;;;;;;5074036;28;20052;-70
2021/07/19 08:58:47;;;;;;;6.95;4.80;;;;;;;;;;5074369;28;20049;-70
2021/07/19 09:01:14;;;;;;;6.47;3.72;;;;;;;;;;5074028;28;20060;-70
2021/07/19 09:03:40;;;;;;;4.53;3.45;;;;;;;;;;5074333;28;20052;-70
2021/07/19 09:06:07;;;;;;;4.82;3.40;;;;;;;;;;5074182;28;20048;-70
2021/07/19 09:08:34;;;;;;;5.68;3.80;;;;;;;;;;5073627;28;20052;-70
2021/07/19 09:11:08;;;;;;;8.38;4.88;;;;;;;;;;5074090;28;20049;-70
2021/07/19 09:13:35;;;;;;;5.55;3.78;;;;;;;;;;5073120;28;20052;-70
2021/07/19 09:16:02;;;;;;;5.70;4.00;;;;;;;;;;5073819;28;20064;-70
2021/07/19 09:18:29;;;;;;;5.53;3.75;;;;;;;;;;5073719;28;20044;-70
2021/07/19 09:20:56;;;;;;;6.07;3.90;;;;;;;;;;5073880;28;20409;-70
2021/07/19 09:23:27;;;;;;;6.93;4.07;;;;;;;;;;5073951;28;20490;-70
2021/07/19 09:25:55;;;;;;;5.15;3.58;;;;;;;;;;5073731;28;20044;-70
2021/07/19 09:28:28;;;;;;;8.00;3.65;;;;;;;;;;5073318;28;20048;-70
2021/07/19 09:31:05;;;;;;;4.65;3.53;;;;;;;;;;5073890;28;20048;-70
2021/07/19 09:33:31;;;;;;;5.72;3.50;;;;;;;;;;5073497;28;20048;-70
2021/07/19 09:36:01;;;;;;;10.68;4.00;;;;;;;;;;5073651;28;20469;-70
2021/07/19 09:38:29;;;;;;;5.68;3.55;;;;;;;;;;5069996;28;20786;-70
2021/07/19 09:40:58;;;;;;;10.05;4.65;;;;;;;;;;5069780;28;20407;-70
2021/07/19 09:43:26;;;;;;;8.23;3.95;;;;;;;;;;5068224;28;20041;-70
2021/07/19 09:45:59;;;;;;;4.88;3.80;;;;;;;;;;5073160;28;20421;-70
2021/07/19 09:48:25;;;;;;;5.10;3.55;;;;;;;;;;5073513;28;20052;-70
2021/07/19 09:50:52;;;;;;;4.97;3.53;;;;;;;;;;5072781;28;20067;-70
2021/07/19 09:53:27;;;;;;;7.85;3.63;;;;;;;;;;5073079;28;20417;-70
2021/07/19 09:55:54;;;;;;;6.57;4.10;;;;;;;;;;5072261;28;20040;-70
2021/07/19 09:58:22;;;;;;;7.53;4.30;;;;;;;;;;5073007;28;20443;-69
2021/07/19 10:00:49;;;;;;;7.07;4.07;;;;;;;;;;5073262;28;20388;-69
2021/07/19 10:03:17;;;;;;;7.78;3.42;;;;;;;;;;5073251;28;20385;-68
2021/07/19 10:05:44;;;;;;;4.45;3.55;;;;;;;;;;5073081;28;20053;-70
2021/07/19 10:08:20;;;;;;;5.47;3.75;;;;;;;;;;5072470;28;20071;-70
2021/07/19 10:10:47;;;;;;;4.50;3.72;;;;;;;;;;5072737;28;20057;-69
2021/07/19 10:13:16;;;;;;;6.63;3.63;;;;;;;;;;5072822;28;20067;-70
2021/07/19 10:15:43;;;;;;;5.45;3.67;;;;;;;;;;5072708;28;20106;-70
2021/07/19 10:18:11;;;;;;;8.02;4.68;;;;;;;;;;5072852;28;20052;-70
2021/07/19 10:20:40;;;;;;;7.15;3.78;;;;;;;;;;5072628;28;20048;-70
2021/07/19 10:23:07;;;;;;;5.65;3.60;;;;;;;;;;5072283;28;20052;-70
2021/07/19 10:25:37;;;;;;;5.43;3.28;;;;;;;;;;5071954;28;20051;-70
2021/07/19 10:28:04;;;;;;;9.13;3.97;;;;;;;;;;5072673;28;20459;-70
2021/07/19 10:30:30;;;;;;;6.93;4.25;;;;;;;;;;5072325;28;20052;-70
2021/07/19 10:32:57;;;;;;;4.60;3.15;;;;;;;;;;5072183;28;20056;-70
2021/07/19 10:35:27;;;;;;;5.90;3.60;;;;;;;;;;5072344;28;20055;-70
2021/07/19 10:37:58;;;;;;;5.22;3.15;;;;;;;;;;5069671;28;20048;-71
2021/07/19 10:40:27;;;;;;;6.22;3.17;;;;;;;;;;5072429;28;20386;-69
2021/07/19 10:43:05;;;;;;;6.32;3.38;;;;;;;;;;5072128;28;20060;-70
2021/07/19 10:45:38;;;;;;;5.70;3.45;;;;;;;;;;5054874;28;20052;-70
2021/07/19 10:48:06;;;;;;;4.85;3.45;;;;;;;;;;5072124;28;20635;-70
2021/07/19 10:50:38;;;;;;;7.90;3.88;;;;;;;;;;5071903;28;20056;-69
2021/07/19 10:53:16;;;;;;;5.85;2.88;;;;;;;;;;5071998;28;20060;-69
2021/07/19 10:55:42;;;;;;;6.63;2.97;;;;;;;;;;5072151;28;20056;-69
2021/07/19 10:58:15;;;;;;;5.88;3.17;;;;;;;;;;5071887;28;20049;-70
2021/07/19 11:00:45;;;;;;;6.05;3.00;;;;;;;;;;5072049;28;20088;-70
2021/07/19 11:03:13;;;;;;;6.45;3.20;;;;;;;;;;5071042;28;20048;-69
2021/07/19 11:05:41;;;;;;;4.47;3.17;;;;;;;;;;5072005;28;20428;-70
2021/07/19 11:08:19;;;;;;;4.53;2.80;;;;;;;;;;5071768;28;20056;-69
2021/07/19 11:10:47;;;;;;;5.82;3.42;;;;;;;;;;5071871;28;20408;-70
2021/07/19 11:13:25;;;;;;;6.78;2.85;;;;;;;;;;5071602;28;20048;-70
2021/07/19 11:15:52;;;;;;;5.18;3.30;;;;;;;;;;5071863;28;20048;-69
2021/07/19 11:18:19;;;;;;;5.10;3.50;;;;;;;;;;5071124;28;20102;-70
2021/07/19 11:20:48;;;;;;;5.10;3.10;;;;;;;;;;5071576;28;20049;-70
2021/07/19 11:23:25;;;;;;;7.43;2.88;;;;;;;;;;5071548;28;20136;-70
2021/07/19 11:25:52;;;;;;;6.35;3.30;;;;;;;;;;5057580;28;20051;-69
2021/07/19 11:28:20;;;;;;;4.57;2.95;;;;;;;;;;5071862;28;20049;-69
2021/07/19 11:31:04;;;;;;;6.10;3.05;;;;;;;;;;5071687;28;20071;-69
2021/07/19 11:33:38;;;;;;;7.05;3.13;;;;;;;;;;5071943;28;20495;-70
2021/07/19 11:36:20;;;;;;;5.75;2.95;;;;;;;;;;5071746;28;20044;-70
2021/07/19 11:38:48;;;;;;;5.97;3.58;;;;;;;;;;5071380;28;20066;-70
2021/07/19 11:41:21;;;;;;;4.30;2.70;;;;;;;;;;5071530;28;20048;-70
2021/07/19 11:43:50;;;;;;;4.93;2.90;;;;;;;;;;5071481;28;20445;-70
2021/07/19 11:46:24;;;;;;;4.80;2.80;;;;;;;;;;5071580;28;20389;-70
2021/07/19 11:48:51;;;;;;;4.68;3.35;;;;;;;;;;5070387;28;20040;-70
2021/07/19 11:51:20;;;;;;;5.63;3.10;;;;;;;;;;5071579;28;20564;-69
2021/07/19 11:53:48;;;;;;;6.60;3.20;;;;;;;;;;5071205;28;20037;-69
2021/07/19 11:56:15;;;;;;;6.07;3.58;;;;;;;;;;5071455;28;20102;-69
2021/07/19 11:58:42;;;;;;;6.95;2.97;;;;;;;;;;5071521;28;20048;-69
2021/07/19 12:01:09;;;;;;;6.25;3.05;;;;;;;;;;5071124;28;20051;-69
2021/07/19 12:03:36;;;;;;;5.50;3.00;;;;;;;;;;5070794;28;20044;-69
2021/07/19 12:06:02;;;;;;;3.78;2.60;;;;;;;;;;5071126;28;20147;-69
2021/07/19 12:08:31;;;;;;;6.90;4.03;;;;;;;;;;5071571;28;20053;-69
2021/07/19 12:11:01;;;;;;;6.95;2.85;;;;;;;;;;5070763;28;20048;-69
2021/07/19 12:13:32;;;;;;;6.22;2.42;;;;;;;;;;5063385;28;20044;-69
2021/07/19 12:15:59;;;;;;;8.23;3.10;;;;;;;;;;5074484;28;20040;-70
2021/07/19 12:18:30;;;;;;;6.70;3.17;;;;;;;;;;5074657;28;20057;-70
2021/07/19 12:20:58;;;;;;;5.20;2.97;;;;;;;;;;5074880;28;20048;-69
2021/07/19 12:23:24;;;;;;;5.97;2.83;;;;;;;;;;5061021;28;20040;-70
2021/07/19 12:25:57;;;;;;;5.50;2.97;;;;;;;;;;5072466;28;20044;-70
2021/07/19 12:28:25;;;;;;;6.53;2.60;;;;;;;;;;5073375;28;20067;-70
2021/07/19 12:30:54;;;;;;;5.72;2.97;;;;;;;;;;5073711;28;20045;-69
2021/07/19 12:33:23;;;;;;;4.55;3.40;;;;;;;;;;5074383;28;20063;-70
2021/07/19 12:35:50;;;;;;;5.18;2.90;;;;;;;;;;5074464;28;20067;-69
2021/07/19 12:38:17;;;;;;;4.03;2.90;;;;;;;;;;5074436;28;20052;-70
2021/07/19 12:40:44;;;;;;;5.55;3.20;;;;;;;;;;5074368;28;20071;-70
2021/07/19 12:43:10;;;;;;;5.18;2.47;;;;;;;;;;5074646;28;20049;-69
2021/07/19 12:45:39;;;;;;;5.57;2.50;;;;;;;;;;5073912;28;20048;-69
2021/07/19 12:48:06;;;;;;;4.38;2.45;;;;;;;;;;5074345;28;20522;-69
2021/07/19 12:50:33;;;;;;;4.28;2.63;;;;;;;;;;5073969;28;20056;-69
2021/07/19 12:52:59;;;;;;;4.60;2.40;;;;;;;;;;5069357;28;20044;-69
2021/07/19 12:55:28;;;;;;;4.68;2.63;;;;;;;;;;5072168;28;20131;-69
2021/07/19 12:57:56;;;;;;;6.93;2.72;;;;;;;;;;5074245;28;20048;-69
2021/07/19 13:00:27;;;;;;;2.80;2.00;;;;;;;;;;5067216;28;20091;-69
2021/07/19 13:03:03;;;;;;;4.47;1.98;;;;;;;;;;5061569;28;20044;-69
2021/07/19 13:05:29;;;;;;;4.45;2.42;;;;;;;;;;5072574;28;20396;-70
2021/07/19 13:07:56;;;;;;;4.30;2.28;;;;;;;;;;5072439;28;20045;-69
2021/07/19 13:10:24;;;;;;;4.60;2.30;;;;;;;;;;5072996;28;20052;-70
2021/07/19 13:12:51;;;;;;;4.18;2.20;;;;;;;;;;5058595;28;20053;-70
2021/07/19 13:15:20;;;;;;;3.40;2.25;;;;;;;;;;5053983;28;20053;-70
2021/07/19 13:17:47;;;;;;;4.10;2.25;;;;;;;;;;5073737;28;20140;-70
2021/07/19 13:20:17;;;;;;;4.05;2.63;;;;;;;;;;5073771;28;20485;-69
2021/07/19 13:22:45;;;;;;;5.43;2.72;;;;;;;;;;5073522;28;20074;-70
2021/07/19 13:25:21;;;;;;;73.72;7.20;;;;;;;;;;5072699;28;20040;-69
2021/07/19 13:27:48;;;;;;;12.63;2.90;;;;;;;;;;5053652;28;20056;-69
2021/07/19 13:30:16;;;;;;;8.95;2.85;;;;;;;;;;5052882;28;20051;-69
2021/07/19 13:32:44;;;;;;;5.32;2.35;;;;;;;;;;5072902;28;20063;-69
2021/07/19 13:35:13;;;;;;;4.88;3.08;;;;;;;;;;5073606;28;20098;-70
2021/07/19 13:37:50;;;;;;;4.88;2.30;;;;;;;;;;5072810;28;20052;-69
2021/07/19 13:40:19;;;;;;;5.85;2.72;;;;;;;;;;5073609;28;20052;-69
2021/07/19 13:42:46;;;;;;;4.88;2.28;;;;;;;;;;5072913;28;20052;-69
2021/07/19 13:45:18;;;;;;;7.25;2.25;;;;;;;;;;5073723;28;20052;-69
2021/07/19 13:47:45;;;;;;;7.53;2.30;;;;;;;;;;5072995;28;20083;-69
2021/07/19 13:50:11;;;;;;;4.00;2.05;;;;;;;;;;5073060;28;20510;-69
2021/07/19 13:52:38;;;;;;;4.20;2.30;;;;;;;;;;5072803;28;20064;-69
2021/07/19 13:55:07;;;;;;;4.00;2.03;;;;;;;;;;5073339;28;20397;-69
2021/07/19 13:57:34;;;;;;;4.22;2.40;;;;;;;;;;5072907;28;20048;-69
2021/07/19 14:00:00;;;;;;;3.40;2.38;;;;;;;;;;5072931;28;20374;-69
2021/07/19 14:02:29;;;;;;;4.25;2.08;;;;;;;;;;5073176;28;20049;-69
2021/07/19 14:04:55;;;;;;;3.53;2.00;;;;;;;;;;5072977;28;20045;-69
2021/07/19 14:07:22;;;;;;;3.80;2.10;;;;;;;;;;5072926;28;20048;-70
2021/07/19 14:09:48;;;;;;;4.47;2.63;;;;;;;;;;5072227;28;20404;-69
2021/07/19 14:12:16;;;;;;;4.05;1.70;;;;;;;;;;5072262;28;20048;-69
2021/07/19 14:14:43;;;;;;;4.50;2.53;;;;;;;;;;5072896;28;20045;-69
2021/07/19 14:17:09;;;;;;;6.72;2.42;;;;;;;;;;5072912;28;20388;-70
2021/07/19 14:19:36;;;;;;;9.52;2.63;;;;;;;;;;5072330;28;20052;-70
2021/07/19 14:22:02;;;;;;;5.32;2.10;;;;;;;;;;5072531;28;20045;-69
2021/07/19 14:24:29;;;;;;;5.28;2.53;;;;;;;;;;5072224;28;20045;-69
2021/07/19 14:26:55;;;;;;;2.60;1.98;;;;;;;;;;5072253;28;20049;-69
2021/07/19 14:29:23;;;;;;;3.70;1.90;;;;;;;;;;5071996;28;20745;-69
2021/07/19 14:31:52;;;;;;;4.65;2.10;;;;;;;;;;5071136;28;20049;-69
2021/07/19 14:34:22;;;;;;;3.53;1.83;;;;;;;;;;5071837;28;20048;-69
2021/07/19 14:36:48;;;;;;;3.03;1.92;;;;;;;;;;5071831;28;20056;-69
2021/07/19 14:39:15;;;;;;;4.70;1.83;;;;;;;;;;5069981;28;20062;-69